LIPL/QBS METAR and TAF weather

Enter ICAO airport designator
Station Type Date Time Source
LIPL METAR 2019/05/20 09:55 UTC NOAA

LIPL 200955Z 27005KT 3000 -RA BR FEW008 SCT014 15/12 Q1004


Station Type Date Time Source
LIPL Decoded METAR 2019/05/20 09:55 UTC NOAA

Brescia / Ghedi, Italy (LIPL) 45-25N 010-17E 97M
May 20, 2019 - 05:55 AM EDT / 2019.05.20 0955 UTC
Wind: from the W (270 degrees) at 6 MPH (5 KT):0
Visibility: 1 mile(s):0
Sky conditions: partly cloudy
Weather: light rain; mist
Temperature: 59 F (15 C)
Dew Point: 53 F (12 C)
Relative Humidity: 82%
Pressure (altimeter): 29.65 in. Hg (1004 hPa)
ob: LIPL 200955Z 27005KT 3000 -RA BR FEW008 SCT014 15/12 Q1004
cycle: 10

Station Type Date Time Source
LIPL TAF 2018/06/14 09:48 UTC NOAA

TAF TAF LIPL 140800Z 1409/1421 VRB05KT 9999 SCT035 SCT080

Example: see airport list